sensor_id;sensor_type;location;lat;lon;timestamp;P1;durP1;ratioP1;P2;durP2;ratioP2
9140;SDS011;46330;50.822;7.126;2023-04-08T00:00:50;24.33;;;14.25;;
9140;SDS011;46330;50.822;7.126;2023-04-08T00:03:18;29.20;;;14.40;;
9140;SDS011;46330;50.822;7.126;2023-04-08T00:05:47;28.27;;;14.60;;
9140;SDS011;46330;50.822;7.126;2023-04-08T00:08:15;28.08;;;14.43;;
9140;SDS011;46330;50.822;7.126;2023-04-08T00:10:43;32.25;;;14.85;;
9140;SDS011;46330;50.822;7.126;2023-04-08T00:13:11;31.05;;;15.75;;
9140;SDS011;46330;50.822;7.126;2023-04-08T00:15:40;30.55;;;15.93;;
9140;SDS011;46330;50.822;7.126;2023-04-08T00:18:09;34.20;;;16.27;;
9140;SDS011;46330;50.822;7.126;2023-04-08T00:20:37;31.30;;;15.38;;
9140;SDS011;46330;50.822;7.126;2023-04-08T00:23:05;30.92;;;15.30;;
9140;SDS011;46330;50.822;7.126;2023-04-08T00:25:33;28.98;;;15.35;;
9140;SDS011;46330;50.822;7.126;2023-04-08T00:28:01;29.83;;;15.82;;
9140;SDS011;46330;50.822;7.126;2023-04-08T00:30:29;35.08;;;16.77;;
9140;SDS011;46330;50.822;7.126;2023-04-08T00:32:57;31.00;;;15.85;;
9140;SDS011;46330;50.822;7.126;2023-04-08T00:35:27;35.20;;;17.52;;
9140;SDS011;46330;50.822;7.126;2023-04-08T00:37:55;31.63;;;16.73;;
9140;SDS011;46330;50.822;7.126;2023-04-08T00:40:23;36.05;;;17.27;;
9140;SDS011;46330;50.822;7.126;2023-04-08T00:42:51;36.47;;;17.55;;
9140;SDS011;46330;50.822;7.126;2023-04-08T00:45:19;34.15;;;16.35;;
9140;SDS011;46330;50.822;7.126;2023-04-08T00:47:47;30.33;;;15.88;;
9140;SDS011;46330;50.822;7.126;2023-04-08T00:50:18;27.88;;;15.63;;
9140;SDS011;46330;50.822;7.126;2023-04-08T00:52:47;28.98;;;15.82;;
9140;SDS011;46330;50.822;7.126;2023-04-08T00:55:15;31.98;;;16.05;;
9140;SDS011;46330;50.822;7.126;2023-04-08T00:57:44;30.60;;;15.88;;
9140;SDS011;46330;50.822;7.126;2023-04-08T01:00:13;33.58;;;15.90;;
9140;SDS011;46330;50.822;7.126;2023-04-08T01:02:44;29.45;;;15.77;;
9140;SDS011;46330;50.822;7.126;2023-04-08T01:05:19;30.70;;;16.00;;
9140;SDS011;46330;50.822;7.126;2023-04-08T01:07:56;31.15;;;15.63;;
9140;SDS011;46330;50.822;7.126;2023-04-08T01:10:29;35.15;;;15.88;;
9140;SDS011;46330;50.822;7.126;2023-04-08T01:13:02;36.47;;;15.63;;
9140;SDS011;46330;50.822;7.126;2023-04-08T01:15:31;30.92;;;15.93;;
9140;SDS011;46330;50.822;7.126;2023-04-08T01:18:05;34.50;;;16.40;;
9140;SDS011;46330;50.822;7.126;2023-04-08T01:20:34;30.15;;;15.80;;
9140;SDS011;46330;50.822;7.126;2023-04-08T01:23:07;36.33;;;17.55;;
9140;SDS011;46330;50.822;7.126;2023-04-08T01:25:45;30.13;;;15.40;;
9140;SDS011;46330;50.822;7.126;2023-04-08T01:28:14;32.22;;;16.33;;
9140;SDS011;46330;50.822;7.126;2023-04-08T01:30:44;32.90;;;17.10;;
9140;SDS011;46330;50.822;7.126;2023-04-08T01:33:14;33.15;;;16.70;;
9140;SDS011;46330;50.822;7.126;2023-04-08T01:35:44;35.22;;;16.42;;
9140;SDS011;46330;50.822;7.126;2023-04-08T01:38:13;32.85;;;16.17;;
9140;SDS011;46330;50.822;7.126;2023-04-08T01:40:45;35.53;;;16.95;;
9140;SDS011;46330;50.822;7.126;2023-04-08T01:43:15;32.38;;;17.17;;
9140;SDS011;46330;50.822;7.126;2023-04-08T01:45:45;28.17;;;16.15;;
9140;SDS011;46330;50.822;7.126;2023-04-08T01:48:14;36.05;;;16.90;;
9140;SDS011;46330;50.822;7.126;2023-04-08T01:50:43;37.25;;;18.02;;
9140;SDS011;46330;50.822;7.126;2023-04-08T01:53:12;35.42;;;17.63;;
9140;SDS011;46330;50.822;7.126;2023-04-08T01:55:40;34.15;;;17.40;;
9140;SDS011;46330;50.822;7.126;2023-04-08T01:58:17;33.58;;;18.17;;
9140;SDS011;46330;50.822;7.126;2023-04-08T02:00:47;31.90;;;17.25;;
9140;SDS011;46330;50.822;7.126;2023-04-08T02:03:18;33.25;;;19.00;;
9140;SDS011;46330;50.822;7.126;2023-04-08T02:05:48;34.03;;;17.73;;
9140;SDS011;46330;50.822;7.126;2023-04-08T02:08:16;32.92;;;16.75;;
9140;SDS011;46330;50.822;7.126;2023-04-08T02:10:46;37.72;;;18.08;;
9140;SDS011;46330;50.822;7.126;2023-04-08T02:13:15;37.58;;;17.55;;
9140;SDS011;46330;50.822;7.126;2023-04-08T02:15:51;32.20;;;17.50;;
9140;SDS011;46330;50.822;7.126;2023-04-08T02:18:24;38.88;;;18.13;;
9140;SDS011;46330;50.822;7.126;2023-04-08T02:20:55;32.65;;;17.67;;
9140;SDS011;46330;50.822;7.126;2023-04-08T02:23:29;34.55;;;18.27;;
9140;SDS011;46330;50.822;7.126;2023-04-08T02:26:01;34.45;;;17.90;;
9140;SDS011;46330;50.822;7.126;2023-04-08T02:28:35;39.42;;;19.17;;
9140;SDS011;46330;50.822;7.126;2023-04-08T02:31:04;40.72;;;19.58;;
9140;SDS011;46330;50.822;7.126;2023-04-08T02:33:35;40.95;;;19.60;;
9140;SDS011;46330;50.822;7.126;2023-04-08T02:36:05;38.72;;;18.83;;
9140;SDS011;46330;50.822;7.126;2023-04-08T02:38:34;39.15;;;18.70;;
9140;SDS011;46330;50.822;7.126;2023-04-08T02:41:03;37.47;;;18.85;;
9140;SDS011;46330;50.822;7.126;2023-04-08T02:43:31;40.90;;;19.27;;
9140;SDS011;46330;50.822;7.126;2023-04-08T02:46:05;42.72;;;18.65;;
9140;SDS011;46330;50.822;7.126;2023-04-08T02:48:35;43.63;;;19.02;;
9140;SDS011;46330;50.822;7.126;2023-04-08T02:51:03;41.22;;;20.13;;
9140;SDS011;46330;50.822;7.126;2023-04-08T02:53:31;33.35;;;18.02;;
9140;SDS011;46330;50.822;7.126;2023-04-08T02:55:58;39.60;;;18.73;;
9140;SDS011;46330;50.822;7.126;2023-04-08T02:58:27;40.90;;;19.63;;
9140;SDS011;46330;50.822;7.126;2023-04-08T03:00:54;39.38;;;18.35;;
9140;SDS011;46330;50.822;7.126;2023-04-08T03:03:24;41.45;;;18.92;;
9140;SDS011;46330;50.822;7.126;2023-04-08T03:05:55;41.85;;;19.30;;
9140;SDS011;46330;50.822;7.126;2023-04-08T03:08:23;38.95;;;18.63;;
9140;SDS011;46330;50.822;7.126;2023-04-08T03:10:51;40.15;;;19.70;;
9140;SDS011;46330;50.822;7.126;2023-04-08T03:13:19;44.88;;;19.10;;
9140;SDS011;46330;50.822;7.126;2023-04-08T03:15:47;39.58;;;18.95;;
9140;SDS011;46330;50.822;7.126;2023-04-08T03:18:15;42.50;;;19.27;;
9140;SDS011;46330;50.822;7.126;2023-04-08T03:20:45;43.58;;;18.90;;
9140;SDS011;46330;50.822;7.126;2023-04-08T03:23:13;41.60;;;18.90;;
9140;SDS011;46330;50.822;7.126;2023-04-08T03:25:41;45.72;;;18.52;;
9140;SDS011;46330;50.822;7.126;2023-04-08T03:28:09;41.13;;;19.52;;
9140;SDS011;46330;50.822;7.126;2023-04-08T03:30:37;37.17;;;18.52;;
9140;SDS011;46330;50.822;7.126;2023-04-08T03:33:05;38.17;;;18.98;;
9140;SDS011;46330;50.822;7.126;2023-04-08T03:35:34;41.03;;;17.90;;
9140;SDS011;46330;50.822;7.126;2023-04-08T03:38:04;42.67;;;17.73;;
9140;SDS011;46330;50.822;7.126;2023-04-08T03:40:32;41.55;;;19.30;;
9140;SDS011;46330;50.822;7.126;2023-04-08T03:43:00;38.10;;;19.05;;
9140;SDS011;46330;50.822;7.126;2023-04-08T03:45:27;42.33;;;18.90;;
9140;SDS011;46330;50.822;7.126;2023-04-08T03:47:55;39.95;;;17.48;;
9140;SDS011;46330;50.822;7.126;2023-04-08T03:50:23;39.55;;;17.88;;
9140;SDS011;46330;50.822;7.126;2023-04-08T03:52:51;39.42;;;17.90;;
9140;SDS011;46330;50.822;7.126;2023-04-08T03:55:20;36.22;;;17.85;;
9140;SDS011;46330;50.822;7.126;2023-04-08T03:57:48;35.20;;;17.17;;
9140;SDS011;46330;50.822;7.126;2023-04-08T04:00:16;35.85;;;18.08;;
9140;SDS011;46330;50.822;7.126;2023-04-08T04:02:44;39.20;;;18.02;;
9140;SDS011;46330;50.822;7.126;2023-04-08T04:05:12;40.95;;;18.08;;
9140;SDS011;46330;50.822;7.126;2023-04-08T04:07:40;37.97;;;17.92;;
9140;SDS011;46330;50.822;7.126;2023-04-08T04:10:08;37.85;;;16.80;;
9140;SDS011;46330;50.822;7.126;2023-04-08T04:12:38;43.80;;;18.05;;
9140;SDS011;46330;50.822;7.126;2023-04-08T04:15:06;34.30;;;18.10;;
9140;SDS011;46330;50.822;7.126;2023-04-08T04:17:35;37.97;;;18.08;;
9140;SDS011;46330;50.822;7.126;2023-04-08T04:20:03;32.42;;;16.05;;
9140;SDS011;46330;50.822;7.126;2023-04-08T04:22:31;34.55;;;17.35;;
9140;SDS011;46330;50.822;7.126;2023-04-08T04:24:59;34.20;;;17.83;;
9140;SDS011;46330;50.822;7.126;2023-04-08T04:27:27;39.53;;;16.88;;
9140;SDS011;46330;50.822;7.126;2023-04-08T04:29:56;39.40;;;18.88;;
9140;SDS011;46330;50.822;7.126;2023-04-08T04:32:24;37.85;;;18.42;;
9140;SDS011;46330;50.822;7.126;2023-04-08T04:34:52;41.28;;;18.88;;
9140;SDS011;46330;50.822;7.126;2023-04-08T04:37:20;42.38;;;19.77;;
9140;SDS011;46330;50.822;7.126;2023-04-08T04:39:48;40.33;;;19.15;;
9140;SDS011;46330;50.822;7.126;2023-04-08T04:42:16;38.58;;;18.40;;
9140;SDS011;46330;50.822;7.126;2023-04-08T04:44:44;42.40;;;18.95;;
9140;SDS011;46330;50.822;7.126;2023-04-08T04:47:13;39.00;;;19.77;;
9140;SDS011;46330;50.822;7.126;2023-04-08T04:49:41;44.42;;;20.08;;
9140;SDS011;46330;50.822;7.126;2023-04-08T04:52:10;44.33;;;20.13;;
9140;SDS011;46330;50.822;7.126;2023-04-08T04:54:38;50.97;;;19.75;;
9140;SDS011;46330;50.822;7.126;2023-04-08T04:57:06;52.67;;;20.15;;
9140;SDS011;46330;50.822;7.126;2023-04-08T04:59:34;46.67;;;20.73;;
9140;SDS011;46330;50.822;7.126;2023-04-08T05:02:02;45.65;;;20.08;;
9140;SDS011;46330;50.822;7.126;2023-04-08T05:04:32;49.35;;;20.27;;
9140;SDS011;46330;50.822;7.126;2023-04-08T05:07:00;48.72;;;19.92;;
9140;SDS011;46330;50.822;7.126;2023-04-08T05:09:28;43.17;;;20.38;;
9140;SDS011;46330;50.822;7.126;2023-04-08T05:11:57;50.40;;;21.10;;
9140;SDS011;46330;50.822;7.126;2023-04-08T05:14:27;50.35;;;20.75;;
9140;SDS011;46330;50.822;7.126;2023-04-08T05:16:55;49.08;;;20.80;;
9140;SDS011;46330;50.822;7.126;2023-04-08T05:19:23;55.28;;;21.23;;
9140;SDS011;46330;50.822;7.126;2023-04-08T05:21:53;40.40;;;20.05;;
9140;SDS011;46330;50.822;7.126;2023-04-08T05:24:21;53.67;;;21.95;;
9140;SDS011;46330;50.822;7.126;2023-04-08T05:26:49;55.03;;;24.58;;
9140;SDS011;46330;50.822;7.126;2023-04-08T05:29:18;44.35;;;20.83;;
9140;SDS011;46330;50.822;7.126;2023-04-08T05:31:47;45.80;;;21.65;;
9140;SDS011;46330;50.822;7.126;2023-04-08T05:34:15;47.60;;;21.77;;
9140;SDS011;46330;50.822;7.126;2023-04-08T05:36:48;54.67;;;22.38;;
9140;SDS011;46330;50.822;7.126;2023-04-08T05:39:19;45.33;;;20.83;;
9140;SDS011;46330;50.822;7.126;2023-04-08T05:41:47;47.13;;;20.77;;
9140;SDS011;46330;50.822;7.126;2023-04-08T05:44:15;47.08;;;21.48;;
9140;SDS011;46330;50.822;7.126;2023-04-08T05:46:43;49.72;;;21.00;;
9140;SDS011;46330;50.822;7.126;2023-04-08T05:49:11;46.13;;;21.02;;
9140;SDS011;46330;50.822;7.126;2023-04-08T05:51:39;50.47;;;22.15;;
9140;SDS011;46330;50.822;7.126;2023-04-08T05:54:07;46.85;;;21.58;;
9140;SDS011;46330;50.822;7.126;2023-04-08T05:56:36;46.25;;;20.75;;
9140;SDS011;46330;50.822;7.126;2023-04-08T05:59:04;48.55;;;21.23;;
9140;SDS011;46330;50.822;7.126;2023-04-08T06:01:32;45.25;;;20.92;;
9140;SDS011;46330;50.822;7.126;2023-04-08T06:04:00;52.47;;;21.83;;
9140;SDS011;46330;50.822;7.126;2023-04-08T06:06:29;43.83;;;20.58;;
9140;SDS011;46330;50.822;7.126;2023-04-08T06:08:57;43.45;;;20.52;;
9140;SDS011;46330;50.822;7.126;2023-04-08T06:11:25;42.33;;;20.38;;
9140;SDS011;46330;50.822;7.126;2023-04-08T06:13:54;41.03;;;20.13;;
9140;SDS011;46330;50.822;7.126;2023-04-08T06:16:22;43.30;;;20.88;;
9140;SDS011;46330;50.822;7.126;2023-04-08T06:18:50;43.17;;;20.55;;
9140;SDS011;46330;50.822;7.126;2023-04-08T06:21:18;40.95;;;20.42;;
9140;SDS011;46330;50.822;7.126;2023-04-08T06:23:47;40.45;;;20.80;;
9140;SDS011;46330;50.822;7.126;2023-04-08T06:26:14;43.92;;;19.60;;
9140;SDS011;46330;50.822;7.126;2023-04-08T06:28:42;43.72;;;20.98;;
9140;SDS011;46330;50.822;7.126;2023-04-08T06:31:11;43.78;;;21.55;;
9140;SDS011;46330;50.822;7.126;2023-04-08T06:33:39;47.65;;;22.27;;
9140;SDS011;46330;50.822;7.126;2023-04-08T06:36:07;44.88;;;21.45;;
9140;SDS011;46330;50.822;7.126;2023-04-08T06:38:36;43.03;;;20.10;;
9140;SDS011;46330;50.822;7.126;2023-04-08T06:41:04;45.03;;;19.38;;
9140;SDS011;46330;50.822;7.126;2023-04-08T06:43:33;42.10;;;20.45;;
9140;SDS011;46330;50.822;7.126;2023-04-08T06:46:03;42.95;;;20.35;;
9140;SDS011;46330;50.822;7.126;2023-04-08T06:48:33;48.15;;;20.15;;
9140;SDS011;46330;50.822;7.126;2023-04-08T06:51:03;40.22;;;19.35;;
9140;SDS011;46330;50.822;7.126;2023-04-08T06:53:33;41.63;;;19.58;;
9140;SDS011;46330;50.822;7.126;2023-04-08T06:56:01;42.67;;;20.55;;
9140;SDS011;46330;50.822;7.126;2023-04-08T06:58:29;45.30;;;20.00;;
9140;SDS011;46330;50.822;7.126;2023-04-08T07:00:58;43.88;;;19.80;;
9140;SDS011;46330;50.822;7.126;2023-04-08T07:03:26;39.50;;;19.67;;
9140;SDS011;46330;50.822;7.126;2023-04-08T07:05:55;41.17;;;19.27;;
9140;SDS011;46330;50.822;7.126;2023-04-08T07:08:23;42.22;;;19.75;;
9140;SDS011;46330;50.822;7.126;2023-04-08T07:10:52;34.83;;;19.63;;
9140;SDS011;46330;50.822;7.126;2023-04-08T07:13:20;41.03;;;19.48;;
9140;SDS011;46330;50.822;7.126;2023-04-08T07:15:49;36.65;;;18.83;;
9140;SDS011;46330;50.822;7.126;2023-04-08T07:18:17;41.25;;;18.98;;
9140;SDS011;46330;50.822;7.126;2023-04-08T07:20:49;40.35;;;19.83;;
9140;SDS011;46330;50.822;7.126;2023-04-08T07:23:19;40.13;;;19.83;;
9140;SDS011;46330;50.822;7.126;2023-04-08T07:25:48;36.20;;;19.00;;
9140;SDS011;46330;50.822;7.126;2023-04-08T07:28:16;36.03;;;18.95;;
9140;SDS011;46330;50.822;7.126;2023-04-08T07:30:43;36.65;;;18.88;;
9140;SDS011;46330;50.822;7.126;2023-04-08T07:33:12;33.03;;;18.60;;
9140;SDS011;46330;50.822;7.126;2023-04-08T07:35:41;37.65;;;18.85;;
9140;SDS011;46330;50.822;7.126;2023-04-08T07:38:10;31.98;;;17.67;;
9140;SDS011;46330;50.822;7.126;2023-04-08T07:40:40;36.67;;;18.63;;
9140;SDS011;46330;50.822;7.126;2023-04-08T07:43:08;33.28;;;19.90;;
9140;SDS011;46330;50.822;7.126;2023-04-08T07:45:36;36.13;;;19.00;;
9140;SDS011;46330;50.822;7.126;2023-04-08T07:48:04;38.13;;;20.20;;
9140;SDS011;46330;50.822;7.126;2023-04-08T07:50:32;37.83;;;22.10;;
9140;SDS011;46330;50.822;7.126;2023-04-08T07:53:22;41.17;;;22.10;;
9140;SDS011;46330;50.822;7.126;2023-04-08T07:55:53;42.13;;;23.10;;
9140;SDS011;46330;50.822;7.126;2023-04-08T07:58:21;40.10;;;22.83;;
9140;SDS011;46330;50.822;7.126;2023-04-08T08:00:50;40.38;;;23.67;;
9140;SDS011;46330;50.822;7.126;2023-04-08T08:03:18;41.67;;;24.33;;
9140;SDS011;46330;50.822;7.126;2023-04-08T08:05:46;38.00;;;21.88;;
9140;SDS011;46330;50.822;7.126;2023-04-08T08:08:14;39.22;;;22.13;;
9140;SDS011;46330;50.822;7.126;2023-04-08T08:10:42;41.00;;;23.25;;
9140;SDS011;46330;50.822;7.126;2023-04-08T08:13:11;42.15;;;23.42;;
9140;SDS011;46330;50.822;7.126;2023-04-08T08:15:42;37.08;;;20.60;;
9140;SDS011;46330;50.822;7.126;2023-04-08T08:18:10;36.83;;;20.70;;
9140;SDS011;46330;50.822;7.126;2023-04-08T08:20:38;37.05;;;20.48;;
9140;SDS011;46330;50.822;7.126;2023-04-08T08:23:06;38.00;;;20.83;;
9140;SDS011;46330;50.822;7.126;2023-04-08T08:25:33;34.33;;;21.08;;
9140;SDS011;46330;50.822;7.126;2023-04-08T08:28:01;34.90;;;20.52;;
9140;SDS011;46330;50.822;7.126;2023-04-08T08:30:31;33.78;;;21.13;;
9140;SDS011;46330;50.822;7.126;2023-04-08T08:32:59;37.22;;;22.08;;
9140;SDS011;46330;50.822;7.126;2023-04-08T08:35:27;33.42;;;19.95;;
9140;SDS011;46330;50.822;7.126;2023-04-08T08:37:55;34.88;;;20.70;;
9140;SDS011;46330;50.822;7.126;2023-04-08T08:40:23;32.20;;;19.98;;
9140;SDS011;46330;50.822;7.126;2023-04-08T08:42:51;33.22;;;20.35;;
9140;SDS011;46330;50.822;7.126;2023-04-08T08:45:19;37.53;;;21.30;;
9140;SDS011;46330;50.822;7.126;2023-04-08T08:47:49;34.10;;;20.05;;
9140;SDS011;46330;50.822;7.126;2023-04-08T08:50:17;32.05;;;19.98;;
9140;SDS011;46330;50.822;7.126;2023-04-08T08:52:49;30.80;;;18.88;;
9140;SDS011;46330;50.822;7.126;2023-04-08T08:55:18;31.42;;;18.80;;
9140;SDS011;46330;50.822;7.126;2023-04-08T08:58:07;29.13;;;18.20;;
9140;SDS011;46330;50.822;7.126;2023-04-08T09:00:35;32.50;;;19.15;;
9140;SDS011;46330;50.822;7.126;2023-04-08T09:03:18;31.98;;;18.42;;
9140;SDS011;46330;50.822;7.126;2023-04-08T09:05:49;28.23;;;18.27;;
9140;SDS011;46330;50.822;7.126;2023-04-08T09:08:28;28.10;;;16.65;;
9140;SDS011;46330;50.822;7.126;2023-04-08T09:11:09;27.38;;;16.25;;
9140;SDS011;46330;50.822;7.126;2023-04-08T09:13:40;31.73;;;18.42;;
9140;SDS011;46330;50.822;7.126;2023-04-08T09:16:09;28.70;;;18.08;;
9140;SDS011;46330;50.822;7.126;2023-04-08T09:18:39;28.65;;;17.55;;
9140;SDS011;46330;50.822;7.126;2023-04-08T09:21:10;28.23;;;17.33;;
9140;SDS011;46330;50.822;7.126;2023-04-08T09:23:40;29.35;;;18.02;;
9140;SDS011;46330;50.822;7.126;2023-04-08T09:26:10;30.05;;;17.52;;
9140;SDS011;46330;50.822;7.126;2023-04-08T09:28:39;32.60;;;18.75;;
9140;SDS011;46330;50.822;7.126;2023-04-08T09:31:17;31.98;;;17.95;;
9140;SDS011;46330;50.822;7.126;2023-04-08T09:33:48;31.85;;;17.40;;
9140;SDS011;46330;50.822;7.126;2023-04-08T09:36:19;31.02;;;18.27;;
9140;SDS011;46330;50.822;7.126;2023-04-08T09:38:47;28.92;;;17.48;;
9140;SDS011;46330;50.822;7.126;2023-04-08T09:41:15;31.33;;;18.13;;
9140;SDS011;46330;50.822;7.126;2023-04-08T09:43:46;35.95;;;19.55;;
9140;SDS011;46330;50.822;7.126;2023-04-08T09:46:16;32.88;;;19.38;;
9140;SDS011;46330;50.822;7.126;2023-04-08T09:48:47;29.52;;;19.27;;
9140;SDS011;46330;50.822;7.126;2023-04-08T09:51:35;29.00;;;18.85;;
9140;SDS011;46330;50.822;7.126;2023-04-08T09:54:13;34.13;;;19.67;;
9140;SDS011;46330;50.822;7.126;2023-04-08T09:56:46;29.65;;;19.10;;
9140;SDS011;46330;50.822;7.126;2023-04-08T09:59:21;32.40;;;19.65;;
9140;SDS011;46330;50.822;7.126;2023-04-08T10:01:54;30.50;;;18.35;;
9140;SDS011;46330;50.822;7.126;2023-04-08T10:04:27;31.10;;;18.08;;
9140;SDS011;46330;50.822;7.126;2023-04-08T10:06:58;32.50;;;19.30;;
9140;SDS011;46330;50.822;7.126;2023-04-08T10:09:30;29.15;;;17.70;;
9140;SDS011;46330;50.822;7.126;2023-04-08T10:11:59;28.35;;;16.10;;
9140;SDS011;46330;50.822;7.126;2023-04-08T10:14:27;30.95;;;18.10;;
9140;SDS011;46330;50.822;7.126;2023-04-08T10:19:53;35.13;;;19.13;;
9140;SDS011;46330;50.822;7.126;2023-04-08T10:25:30;36.05;;;19.35;;
9140;SDS011;46330;50.822;7.126;2023-04-08T10:27:59;34.40;;;19.50;;
9140;SDS011;46330;50.822;7.126;2023-04-08T10:30:38;37.47;;;20.70;;
9140;SDS011;46330;50.822;7.126;2023-04-08T10:33:11;39.80;;;22.60;;
9140;SDS011;46330;50.822;7.126;2023-04-08T10:35:52;38.50;;;21.17;;
9140;SDS011;46330;50.822;7.126;2023-04-08T10:38:21;39.05;;;20.40;;
9140;SDS011;46330;50.822;7.126;2023-04-08T10:40:49;36.80;;;20.60;;
9140;SDS011;46330;50.822;7.126;2023-04-08T10:43:17;42.95;;;21.35;;
9140;SDS011;46330;50.822;7.126;2023-04-08T10:45:46;41.28;;;21.48;;
9140;SDS011;46330;50.822;7.126;2023-04-08T10:48:17;37.92;;;20.88;;
9140;SDS011;46330;50.822;7.126;2023-04-08T10:50:52;34.95;;;19.15;;
9140;SDS011;46330;50.822;7.126;2023-04-08T10:53:27;35.38;;;19.63;;
9140;SDS011;46330;50.822;7.126;2023-04-08T10:56:02;33.47;;;19.83;;
9140;SDS011;46330;50.822;7.126;2023-04-08T10:58:31;35.13;;;19.42;;
9140;SDS011;46330;50.822;7.126;2023-04-08T11:01:03;33.65;;;18.98;;
9140;SDS011;46330;50.822;7.126;2023-04-08T11:03:33;36.05;;;21.20;;
9140;SDS011;46330;50.822;7.126;2023-04-08T11:06:04;37.30;;;20.23;;
9140;SDS011;46330;50.822;7.126;2023-04-08T11:08:32;43.67;;;21.38;;
9140;SDS011;46330;50.822;7.126;2023-04-08T11:11:03;39.53;;;21.38;;
9140;SDS011;46330;50.822;7.126;2023-04-08T11:13:34;40.63;;;21.52;;
9140;SDS011;46330;50.822;7.126;2023-04-08T11:16:03;34.65;;;18.38;;
9140;SDS011;46330;50.822;7.126;2023-04-08T11:18:42;40.65;;;20.55;;
9140;SDS011;46330;50.822;7.126;2023-04-08T11:21:14;37.40;;;20.15;;
9140;SDS011;46330;50.822;7.126;2023-04-08T11:23:43;38.70;;;20.73;;
9140;SDS011;46330;50.822;7.126;2023-04-08T11:26:11;33.55;;;18.50;;
9140;SDS011;46330;50.822;7.126;2023-04-08T11:28:41;38.85;;;19.48;;
9140;SDS011;46330;50.822;7.126;2023-04-08T11:31:11;37.60;;;19.20;;
9140;SDS011;46330;50.822;7.126;2023-04-08T11:33:43;36.58;;;20.05;;
9140;SDS011;46330;50.822;7.126;2023-04-08T11:36:12;36.22;;;19.20;;
9140;SDS011;46330;50.822;7.126;2023-04-08T11:38:44;37.40;;;20.27;;
9140;SDS011;46330;50.822;7.126;2023-04-08T11:41:13;36.22;;;20.45;;
9140;SDS011;46330;50.822;7.126;2023-04-08T11:43:49;36.05;;;18.98;;
9140;SDS011;46330;50.822;7.126;2023-04-08T11:46:18;35.83;;;17.85;;
9140;SDS011;46330;50.822;7.126;2023-04-08T11:48:56;33.83;;;18.20;;
9140;SDS011;46330;50.822;7.126;2023-04-08T11:51:27;36.50;;;19.02;;
9140;SDS011;46330;50.822;7.126;2023-04-08T11:53:55;32.88;;;17.88;;
9140;SDS011;46330;50.822;7.126;2023-04-08T11:56:24;34.20;;;18.15;;
9140;SDS011;46330;50.822;7.126;2023-04-08T11:58:52;34.88;;;18.38;;
9140;SDS011;46330;50.822;7.126;2023-04-08T12:01:21;28.45;;;16.58;;
9140;SDS011;46330;50.822;7.126;2023-04-08T12:03:52;29.45;;;16.27;;
9140;SDS011;46330;50.822;7.126;2023-04-08T12:06:22;26.17;;;14.88;;
9140;SDS011;46330;50.822;7.126;2023-04-08T12:08:51;26.98;;;15.30;;
9140;SDS011;46330;50.822;7.126;2023-04-08T12:11:19;25.80;;;14.95;;
9140;SDS011;46330;50.822;7.126;2023-04-08T12:13:47;28.20;;;15.43;;
9140;SDS011;46330;50.822;7.126;2023-04-08T12:16:17;24.35;;;14.55;;
9140;SDS011;46330;50.822;7.126;2023-04-08T12:18:46;24.58;;;13.48;;
9140;SDS011;46330;50.822;7.126;2023-04-08T12:21:15;23.48;;;13.77;;
9140;SDS011;46330;50.822;7.126;2023-04-08T12:23:43;24.25;;;14.63;;
9140;SDS011;46330;50.822;7.126;2023-04-08T12:26:12;23.70;;;14.48;;
9140;SDS011;46330;50.822;7.126;2023-04-08T12:28:40;26.55;;;15.30;;
9140;SDS011;46330;50.822;7.126;2023-04-08T12:31:08;25.90;;;15.75;;
9140;SDS011;46330;50.822;7.126;2023-04-08T12:33:36;25.77;;;15.38;;
9140;SDS011;46330;50.822;7.126;2023-04-08T12:36:04;27.10;;;14.82;;
9140;SDS011;46330;50.822;7.126;2023-04-08T12:38:32;24.95;;;15.93;;
9140;SDS011;46330;50.822;7.126;2023-04-08T12:41:00;25.65;;;15.50;;
9140;SDS011;46330;50.822;7.126;2023-04-08T12:43:29;25.45;;;15.57;;
9140;SDS011;46330;50.822;7.126;2023-04-08T12:45:58;27.63;;;16.13;;
9140;SDS011;46330;50.822;7.126;2023-04-08T12:48:27;24.00;;;15.25;;
9140;SDS011;46330;50.822;7.126;2023-04-08T12:50:54;24.75;;;15.25;;
9140;SDS011;46330;50.822;7.126;2023-04-08T12:53:24;26.88;;;15.50;;
9140;SDS011;46330;50.822;7.126;2023-04-08T12:55:51;19.75;;;11.82;;
9140;SDS011;46330;50.822;7.126;2023-04-08T12:58:22;17.08;;;9.85;;
9140;SDS011;46330;50.822;7.126;2023-04-08T13:00:52;14.82;;;8.48;;
9140;SDS011;46330;50.822;7.126;2023-04-08T13:03:20;17.83;;;9.88;;
9140;SDS011;46330;50.822;7.126;2023-04-08T13:05:48;12.65;;;8.23;;
9140;SDS011;46330;50.822;7.126;2023-04-08T13:08:16;14.63;;;8.65;;
9140;SDS011;46330;50.822;7.126;2023-04-08T13:10:44;14.88;;;8.68;;
9140;SDS011;46330;50.822;7.126;2023-04-08T13:13:12;14.52;;;9.55;;
9140;SDS011;46330;50.822;7.126;2023-04-08T13:15:40;15.93;;;9.73;;
9140;SDS011;46330;50.822;7.126;2023-04-08T13:18:10;16.05;;;10.30;;
9140;SDS011;46330;50.822;7.126;2023-04-08T13:20:38;17.10;;;9.65;;
9140;SDS011;46330;50.822;7.126;2023-04-08T13:23:06;15.98;;;9.63;;
9140;SDS011;46330;50.822;7.126;2023-04-08T13:25:34;15.65;;;10.25;;
9140;SDS011;46330;50.822;7.126;2023-04-08T13:28:02;13.40;;;9.27;;
9140;SDS011;46330;50.822;7.126;2023-04-08T13:30:30;16.70;;;9.77;;
9140;SDS011;46330;50.822;7.126;2023-04-08T13:32:58;17.63;;;9.73;;
9140;SDS011;46330;50.822;7.126;2023-04-08T13:35:27;20.30;;;10.35;;
9140;SDS011;46330;50.822;7.126;2023-04-08T13:37:55;15.93;;;9.48;;
9140;SDS011;46330;50.822;7.126;2023-04-08T13:40:24;18.05;;;10.07;;
9140;SDS011;46330;50.822;7.126;2023-04-08T13:42:53;16.23;;;10.10;;
9140;SDS011;46330;50.822;7.126;2023-04-08T13:45:21;14.65;;;9.50;;
9140;SDS011;46330;50.822;7.126;2023-04-08T13:47:49;14.32;;;9.10;;
9140;SDS011;46330;50.822;7.126;2023-04-08T13:50:17;15.27;;;9.25;;
9140;SDS011;46330;50.822;7.126;2023-04-08T13:52:46;14.70;;;9.32;;
9140;SDS011;46330;50.822;7.126;2023-04-08T13:55:14;16.05;;;9.48;;
9140;SDS011;46330;50.822;7.126;2023-04-08T13:57:42;14.25;;;8.98;;
9140;SDS011;46330;50.822;7.126;2023-04-08T14:00:10;17.05;;;9.90;;
9140;SDS011;46330;50.822;7.126;2023-04-08T14:02:40;18.55;;;10.57;;
9140;SDS011;46330;50.822;7.126;2023-04-08T14:05:08;18.13;;;10.05;;
9140;SDS011;46330;50.822;7.126;2023-04-08T14:07:36;16.05;;;10.13;;
9140;SDS011;46330;50.822;7.126;2023-04-08T14:10:06;19.52;;;10.10;;
9140;SDS011;46330;50.822;7.126;2023-04-08T14:12:35;19.85;;;10.88;;
9140;SDS011;46330;50.822;7.126;2023-04-08T14:15:03;19.42;;;11.50;;
9140;SDS011;46330;50.822;7.126;2023-04-08T14:17:31;17.83;;;12.18;;
9140;SDS011;46330;50.822;7.126;2023-04-08T14:20:00;17.13;;;10.68;;
9140;SDS011;46330;50.822;7.126;2023-04-08T14:22:28;18.05;;;11.13;;
9140;SDS011;46330;50.822;7.126;2023-04-08T14:24:56;18.52;;;11.05;;
9140;SDS011;46330;50.822;7.126;2023-04-08T14:27:25;22.58;;;12.02;;
9140;SDS011;46330;50.822;7.126;2023-04-08T14:29:54;19.25;;;11.98;;
9140;SDS011;46330;50.822;7.126;2023-04-08T14:32:22;17.15;;;11.77;;
9140;SDS011;46330;50.822;7.126;2023-04-08T14:34:50;18.63;;;10.77;;
9140;SDS011;46330;50.822;7.126;2023-04-08T14:37:18;16.40;;;10.10;;
9140;SDS011;46330;50.822;7.126;2023-04-08T14:39:46;14.90;;;9.82;;
9140;SDS011;46330;50.822;7.126;2023-04-08T14:42:14;14.40;;;9.20;;
9140;SDS011;46330;50.822;7.126;2023-04-08T14:44:45;14.60;;;8.68;;
9140;SDS011;46330;50.822;7.126;2023-04-08T14:47:13;16.92;;;9.52;;
9140;SDS011;46330;50.822;7.126;2023-04-08T14:49:41;12.75;;;8.90;;
9140;SDS011;46330;50.822;7.126;2023-04-08T14:52:09;12.85;;;8.10;;
9140;SDS011;46330;50.822;7.126;2023-04-08T14:54:37;13.05;;;8.77;;